createdAt,value
2023-01-11T00:00:20.997Z,0
2023-01-11T00:01:21.508Z,0
2023-01-11T00:02:22.068Z,0
2023-01-11T00:03:22.712Z,0
2023-01-11T00:04:22.816Z,0
2023-01-11T00:05:22.843Z,0
2023-01-11T00:06:23.695Z,0
2023-01-11T00:07:24.015Z,0
2023-01-11T00:08:23.966Z,0
2023-01-11T00:09:25.193Z,0
2023-01-11T00:10:25.851Z,0
2023-01-11T00:11:26.791Z,0
2023-01-11T00:12:27.458Z,0
2023-01-11T00:13:28.142Z,0
2023-01-11T00:14:29.395Z,0
2023-01-11T00:15:29.902Z,0
2023-01-11T00:16:30.315Z,0
2023-01-11T00:17:30.537Z,0
2023-01-11T00:18:30.749Z,0
2023-01-11T00:19:31.261Z,0
2023-01-11T00:20:31.482Z,0
2023-01-11T00:21:32.499Z,0
2023-01-11T00:22:32.415Z,0
2023-01-11T00:23:33.961Z,0
2023-01-11T00:24:34.181Z,0
2023-01-11T00:25:35.387Z,0
2023-01-11T00:26:35.975Z,0
2023-01-11T00:27:36.892Z,0
2023-01-11T00:28:37.108Z,0
2023-01-11T00:29:37.485Z,0
2023-01-11T00:30:38.693Z,0
2023-01-11T00:31:38.959Z,0
2023-01-11T00:32:40.287Z,0
2023-01-11T00:33:39.953Z,0
2023-01-11T00:34:40.359Z,0
2023-01-11T00:35:41.838Z,0
2023-01-11T00:36:41.862Z,0
2023-01-11T00:37:43.075Z,0
2023-01-11T00:38:43.625Z,0
2023-01-11T00:39:43.555Z,0
2023-01-11T00:40:44.041Z,0
2023-01-11T00:41:44.328Z,0
2023-01-11T00:42:45.265Z,0
2023-01-11T00:43:45.481Z,0
2023-01-11T00:44:45.721Z,0
2023-01-11T00:45:46.207Z,0
2023-01-11T00:46:46.811Z,0
2023-01-11T00:47:47.026Z,0
2023-01-11T00:48:48.257Z,0
2023-01-11T00:49:49.267Z,0
2023-01-11T00:50:49.460Z,0
2023-01-11T00:51:50.678Z,0
2023-01-11T00:52:50.592Z,0
2023-01-11T00:53:51.117Z,0
2023-01-11T00:54:50.762Z,0
2023-01-11T00:55:51.398Z,0
2023-01-11T00:56:51.747Z,0
2023-01-11T00:57:52.237Z,0
2023-01-11T00:58:52.453Z,0
2023-01-11T00:59:52.696Z,0
2023-01-11T01:00:53.646Z,0
2023-01-11T01:01:54.698Z,0
2023-01-11T01:02:56.187Z,0
2023-01-11T01:03:55.879Z,0
2023-01-11T01:04:55.827Z,0
2023-01-11T01:05:56.606Z,0
2023-01-11T01:06:58.069Z,0
2023-01-11T01:07:57.777Z,0
2023-01-11T01:08:58.728Z,0
2023-01-11T01:09:58.961Z,0
2023-01-11T01:10:59.582Z,0
2023-01-11T01:12:01.093Z,0
2023-01-11T01:13:01.300Z,0
2023-01-11T01:14:01.244Z,0
2023-01-11T01:15:01.770Z,0
2023-01-11T01:16:02.532Z,0
2023-01-11T01:17:02.646Z,0
2023-01-11T01:18:03.577Z,0
2023-01-11T01:19:04.059Z,0
2023-01-11T01:20:04.268Z,0
2023-01-11T01:21:05.531Z,0
2023-01-11T01:22:05.761Z,0
2023-01-11T01:23:05.976Z,0
2023-01-11T01:24:05.925Z,0
2023-01-11T01:25:06.846Z,0
2023-01-11T01:26:08.067Z,0
2023-01-11T01:27:08.687Z,0
2023-01-11T01:28:08.346Z,0
2023-01-11T01:29:09.282Z,0
2023-01-11T01:30:09.839Z,0
2023-01-11T01:31:09.972Z,0
2023-01-11T01:32:09.675Z,0
2023-01-11T01:33:10.902Z,0
2023-01-11T01:34:11.108Z,0
2023-01-11T01:35:11.039Z,0
2023-01-11T01:36:12.263Z,0
2023-01-11T01:37:13.313Z,0
2023-01-11T01:38:14.240Z,0
2023-01-11T01:39:14.486Z,0
2023-01-11T01:40:15.394Z,0
2023-01-11T01:41:16.625Z,0
2023-01-11T01:42:16.557Z,0
2023-01-11T01:43:16.764Z,0
2023-01-11T01:44:16.703Z,0
2023-01-11T01:45:18.222Z,0
2023-01-11T01:46:18.975Z,0
2023-01-11T01:47:18.793Z,0
2023-01-11T01:48:19.720Z,0
2023-01-11T01:49:20.945Z,0
2023-01-11T01:50:21.179Z,0
2023-01-11T01:51:22.400Z,0
2023-01-11T01:52:22.748Z,0
2023-01-11T01:53:23.700Z,0
2023-01-11T01:54:24.001Z,0
2023-01-11T01:55:24.650Z,0
2023-01-11T01:56:25.316Z,0
2023-01-11T01:57:26.687Z,0
2023-01-11T01:58:27.605Z,0
2023-01-11T01:59:27.709Z,0
2023-01-11T02:00:28.305Z,0
2023-01-11T02:01:28.388Z,0
2023-01-11T02:02:29.014Z,0
2023-01-11T02:03:29.361Z,0
2023-01-11T02:04:29.288Z,0
2023-01-11T02:05:30.541Z,0
2023-01-11T02:06:30.605Z,0
2023-01-11T02:07:31.442Z,0
2023-01-11T02:08:31.659Z,0
2023-01-11T02:09:31.301Z,0
2023-01-11T02:10:32.539Z,0
2023-01-11T02:11:33.069Z,0
2023-01-11T02:12:36.112Z,0
2023-01-11T02:13:34.599Z,0
2023-01-11T02:14:35.250Z,0
2023-01-11T02:15:36.550Z,0
2023-01-11T02:16:37.125Z,0
2023-01-11T02:17:37.459Z,0
2023-01-11T02:18:37.942Z,0
2023-01-11T02:19:38.155Z,0
2023-01-11T02:20:38.829Z,0
2023-01-11T02:21:39.736Z,0
2023-01-11T02:22:40.956Z,0
2023-01-11T02:23:40.299Z,0
2023-01-11T02:24:41.271Z,0
2023-01-11T02:25:42.463Z,0
2023-01-11T02:26:42.678Z,0
2023-01-11T02:27:43.696Z,0
2023-01-11T02:28:43.629Z,0
2023-01-11T02:29:44.882Z,0
2023-01-11T02:30:45.104Z,0
2023-01-11T02:31:45.295Z,0
2023-01-11T02:32:45.949Z,0
2023-01-11T02:33:46.458Z,0
2023-01-11T02:34:46.128Z,0
2023-01-11T02:35:47.096Z,0
2023-01-11T02:36:47.747Z,0
2023-01-11T02:37:48.792Z,0
2023-01-11T02:38:49.275Z,0
2023-01-11T02:39:49.500Z,0
2023-01-11T02:40:49.977Z,0
2023-01-11T02:41:50.459Z,0
2023-01-11T02:42:51.166Z,0
2023-01-11T02:43:51.832Z,0
2023-01-11T02:44:52.749Z,0
2023-01-11T02:45:53.274Z,0
2023-01-11T02:46:53.488Z,0
2023-01-11T02:47:54.212Z,0
2023-01-11T02:48:53.834Z,0
2023-01-11T02:49:54.753Z,0
2023-01-11T02:50:55.036Z,0
2023-01-11T02:51:55.681Z,0
2023-01-11T02:52:56.919Z,0
2023-01-11T02:53:57.113Z,0
2023-01-11T02:54:57.630Z,0
2023-01-11T02:55:58.584Z,0
2023-01-11T02:56:59.116Z,0
2023-01-11T02:57:59.443Z,0
2023-01-11T02:59:00.367Z,0
2023-01-11T03:00:00.893Z,0
2023-01-11T03:01:00.875Z,0
2023-01-11T03:02:01.478Z,0
2023-01-11T03:03:02.036Z,0
2023-01-11T03:04:02.749Z,0
2023-01-11T03:05:03.243Z,0
2023-01-11T03:06:03.479Z,0
2023-01-11T03:07:03.979Z,0
2023-01-11T03:08:03.962Z,0
2023-01-11T03:09:04.174Z,0
2023-01-11T03:10:04.771Z,0
2023-01-11T03:11:04.703Z,0
2023-01-11T03:12:04.893Z,0
2023-01-11T03:13:04.822Z,0
2023-01-11T03:14:06.334Z,0
2023-01-11T03:15:06.558Z,0
2023-01-11T03:16:07.128Z,0
2023-01-11T03:17:07.462Z,0
2023-01-11T03:18:07.510Z,0
2023-01-11T03:19:08.433Z,0
2023-01-11T03:20:08.365Z,0
2023-01-11T03:21:09.041Z,0
2023-01-11T03:22:10.233Z,0
2023-01-11T03:23:11.160Z,0
2023-01-11T03:24:11.370Z,0
2023-01-11T03:25:11.628Z,0
2023-01-11T03:26:11.861Z,0
2023-01-11T03:27:12.096Z,0
2023-01-11T03:28:13.162Z,0
2023-01-11T03:29:13.087Z,0
2023-01-11T03:30:14.032Z,0
2023-01-11T03:31:15.373Z,0
2023-01-11T03:32:15.626Z,0
2023-01-11T03:33:15.826Z,0
2023-01-11T03:34:17.016Z,0
2023-01-11T03:35:17.215Z,0
2023-01-11T03:36:17.736Z,0
2023-01-11T03:37:17.695Z,0
2023-01-11T03:38:18.734Z,0
2023-01-11T03:39:19.323Z,0
2023-01-11T03:40:19.274Z,0
2023-01-11T03:41:19.638Z,0
2023-01-11T03:42:20.547Z,0
2023-01-11T03:43:21.503Z,0
2023-01-11T03:44:22.479Z,0
2023-01-11T03:45:22.416Z,0
2023-01-11T03:46:24.051Z,0
2023-01-11T03:47:24.378Z,0
2023-01-11T03:48:25.088Z,0
2023-01-11T03:49:25.021Z,0
2023-01-11T03:50:25.947Z,0
2023-01-11T03:51:26.457Z,0
2023-01-11T03:52:26.666Z,0
2023-01-11T03:53:27.172Z,0
2023-01-11T03:54:27.660Z,0
2023-01-11T03:55:27.888Z,0
2023-01-11T03:56:29.085Z,0
2023-01-11T03:57:29.011Z,0
2023-01-11T03:58:29.797Z,0
2023-01-11T03:59:30.451Z,0
2023-01-11T04:00:31.473Z,0
2023-01-11T04:01:32.514Z,0
2023-01-11T04:02:32.758Z,0
2023-01-11T04:03:33.022Z,0
2023-01-11T04:04:34.247Z,0
2023-01-11T04:05:34.284Z,0
2023-01-11T04:06:35.449Z,0
2023-01-11T04:07:35.451Z,0
2023-01-11T04:08:36.776Z,0
2023-01-11T04:09:38.256Z,0
2023-01-11T04:10:37.802Z,0
2023-01-11T04:11:37.717Z,0
2023-01-11T04:12:38.125Z,0
2023-01-11T04:13:38.797Z,0
2023-01-11T04:14:39.133Z,0
2023-01-11T04:15:40.396Z,0
2023-01-11T04:16:41.303Z,0
2023-01-11T04:17:41.804Z,0
2023-01-11T04:18:42.122Z,0
2023-01-11T04:19:42.606Z,0
2023-01-11T04:20:42.805Z,0
2023-01-11T04:21:43.751Z,0
2023-01-11T04:22:43.956Z,0
2023-01-11T04:23:44.858Z,0
2023-01-11T04:24:45.076Z,0
2023-01-11T04:25:45.455Z,0
2023-01-11T04:26:46.648Z,0
2023-01-11T04:27:46.848Z,0
2023-01-11T04:28:46.850Z,0
2023-01-11T04:29:48.209Z,0
2023-01-11T04:30:48.152Z,0
2023-01-11T04:31:49.020Z,0
2023-01-11T04:32:48.809Z,0
2023-01-11T04:33:50.032Z,0
2023-01-11T04:34:50.225Z,0
2023-01-11T04:35:50.441Z,0
2023-01-11T04:36:50.379Z,0
2023-01-11T04:37:51.581Z,0
2023-01-11T04:38:51.626Z,0
2023-01-11T04:39:52.833Z,0
2023-01-11T04:40:53.056Z,0
2023-01-11T04:41:53.991Z,0
2023-01-11T04:42:53.918Z,0
2023-01-11T04:43:54.570Z,0
2023-01-11T04:44:55.495Z,0
2023-01-11T04:45:56.637Z,0
2023-01-11T04:46:56.955Z,0
2023-01-11T04:47:57.179Z,0
2023-01-11T04:48:57.465Z,0
2023-01-11T04:49:58.677Z,0
2023-01-11T04:50:58.455Z,0
2023-01-11T04:51:59.783Z,0
2023-01-11T04:52:59.753Z,0
2023-01-11T04:54:00.373Z,0
2023-01-11T04:55:01.582Z,0
2023-01-11T04:56:01.814Z,0
2023-01-11T04:57:02.038Z,0
2023-01-11T04:58:02.950Z,0
2023-01-11T04:59:03.319Z,0
2023-01-11T05:00:03.822Z,0
2023-01-11T05:01:04.255Z,0
2023-01-11T05:02:04.695Z,0
2023-01-11T05:03:05.366Z,0
2023-01-11T05:04:06.067Z,0
2023-01-11T05:05:06.389Z,0
2023-01-11T05:06:07.045Z,0
2023-01-11T05:07:08.250Z,0
2023-01-11T05:08:08.614Z,0
2023-01-11T05:09:09.047Z,0
2023-01-11T05:10:10.572Z,0
2023-01-11T05:11:10.540Z,0
2023-01-11T05:12:11.484Z,0
2023-01-11T05:13:12.112Z,0
2023-01-11T05:14:12.458Z,0
2023-01-11T05:15:13.393Z,0
2023-01-11T05:16:14.043Z,0
2023-01-11T05:17:14.357Z,0
2023-01-11T05:18:14.999Z,0
2023-01-11T05:19:16.031Z,0
2023-01-11T05:20:16.254Z,0
2023-01-11T05:21:17.463Z,0
2023-01-11T05:22:17.413Z,0
2023-01-11T05:23:18.338Z,0
2023-01-11T05:24:19.267Z,0
2023-01-11T05:25:19.476Z,0
2023-01-11T05:26:19.988Z,0
2023-01-11T05:27:19.905Z,0
2023-01-11T05:28:20.391Z,0
2023-01-11T05:29:20.700Z,0
2023-01-11T05:30:20.923Z,0
2023-01-11T05:31:21.269Z,0
2023-01-11T05:32:21.838Z,0
2023-01-11T05:33:22.327Z,0
2023-01-11T05:34:22.536Z,0
2023-01-11T05:35:22.505Z,0
2023-01-11T05:36:23.702Z,0
2023-01-11T05:37:24.691Z,0
2023-01-11T05:38:24.620Z,0
2023-01-11T05:39:24.719Z,0
2023-01-11T05:40:25.619Z,0
2023-01-11T05:41:26.316Z,0
2023-01-11T05:42:27.782Z,0
2023-01-11T05:43:28.696Z,0
2023-01-11T05:44:29.215Z,0
2023-01-11T05:45:29.275Z,0
2023-01-11T05:46:29.451Z,0
2023-01-11T05:47:30.690Z,0
2023-01-11T05:48:30.323Z,0
2023-01-11T05:49:31.325Z,0
2023-01-11T05:50:31.956Z,0
2023-01-11T05:51:32.866Z,0
2023-01-11T05:52:33.824Z,0
2023-01-11T05:53:34.481Z,0
2023-01-11T05:54:35.973Z,0
2023-01-11T05:55:35.887Z,0
2023-01-11T05:56:36.113Z,0
2023-01-11T05:57:36.046Z,0
2023-01-11T05:58:36.968Z,0
2023-01-11T05:59:38.283Z,0
2023-01-11T06:00:39.217Z,0
2023-01-11T06:01:39.741Z,0
2023-01-11T06:02:41.001Z,0
2023-01-11T06:03:41.391Z,0
2023-01-11T06:04:41.018Z,0
2023-01-11T06:05:41.959Z,0
2023-01-11T06:06:42.413Z,0
2023-01-11T06:07:42.412Z,0
2023-01-11T06:08:43.909Z,0
2023-01-11T06:09:43.939Z,0
2023-01-11T06:10:44.419Z,0
2023-01-11T06:11:44.071Z,0
2023-01-11T06:12:45.019Z,0
2023-01-11T06:13:45.943Z,0
2023-01-11T06:14:49.323Z,0
2023-01-11T06:15:46.987Z,0
2023-01-11T06:16:48.217Z,0
2023-01-11T06:17:48.216Z,0
2023-01-11T06:18:48.413Z,0
2023-01-11T06:19:49.168Z,0
2023-01-11T06:20:49.795Z,0
2023-01-11T06:21:50.742Z,0
2023-01-11T06:22:50.107Z,0
2023-01-11T06:23:51.330Z,0
2023-01-11T06:24:52.265Z,0
2023-01-11T06:25:55.447Z,0
2023-01-11T06:26:53.106Z,0
2023-01-11T06:27:54.317Z,0
2023-01-11T06:28:54.880Z,0
2023-01-11T06:29:55.620Z,0
2023-01-11T06:30:56.516Z,0
2023-01-11T06:31:57.086Z,0
2023-01-11T06:32:57.597Z,4
2023-01-11T06:33:57.549Z,4
2023-01-11T06:34:58.192Z,0
2023-01-11T06:35:59.117Z,0
2023-01-11T06:36:59.606Z,4
2023-01-11T06:37:58.990Z,0
2023-01-11T06:38:59.955Z,4
2023-01-11T06:40:00.680Z,4
2023-01-11T06:41:00.636Z,4
2023-01-11T06:42:01.144Z,4
2023-01-11T06:43:01.653Z,4
2023-01-11T06:44:01.024Z,4
2023-01-11T06:45:02.263Z,8
2023-01-11T06:46:03.077Z,4
2023-01-11T06:47:03.104Z,8
2023-01-11T06:48:03.046Z,12
2023-01-11T06:49:03.668Z,12
2023-01-11T06:50:04.970Z,16
2023-01-11T06:51:05.510Z,16
2023-01-11T06:52:05.776Z,20
2023-01-11T06:53:05.444Z,24
2023-01-11T06:54:06.375Z,24
2023-01-11T06:55:07.599Z,28
2023-01-11T06:56:07.591Z,28
2023-01-11T06:57:07.600Z,28
2023-01-11T06:58:08.990Z,32
2023-01-11T06:59:09.442Z,32
2023-01-11T07:00:10.330Z,36
2023-01-11T07:01:11.092Z,36
2023-01-11T07:02:11.456Z,40
2023-01-11T07:03:11.386Z,40
2023-01-11T07:04:11.594Z,40
2023-01-11T07:05:12.532Z,44
2023-01-11T07:06:12.965Z,48
2023-01-11T07:07:13.314Z,52
2023-01-11T07:08:14.256Z,56
2023-01-11T07:09:14.548Z,64
2023-01-11T07:10:14.857Z,68
2023-01-11T07:11:14.796Z,76
2023-01-11T07:12:15.192Z,80
2023-01-11T07:13:15.115Z,84
2023-01-11T07:14:15.825Z,92
2023-01-11T07:15:16.810Z,96
2023-01-11T07:16:17.685Z,100
2023-01-11T07:17:17.749Z,104
2023-01-11T07:18:18.318Z,108
2023-01-11T07:19:17.828Z,116
2023-01-11T07:20:19.449Z,124
2023-01-11T07:21:19.130Z,132
2023-01-11T07:22:20.061Z,140
2023-01-11T07:23:21.041Z,148
2023-01-11T07:24:20.967Z,160
2023-01-11T07:25:21.619Z,168
2023-01-11T07:26:23.288Z,180
2023-01-11T07:27:23.571Z,188
2023-01-11T07:28:23.818Z,196
2023-01-11T07:29:24.030Z,204
2023-01-11T07:30:24.040Z,216
2023-01-11T07:31:25.711Z,228
2023-01-11T07:32:25.433Z,240
2023-01-11T07:33:26.380Z,256
2023-01-11T07:34:26.905Z,264
2023-01-11T07:35:28.863Z,276
2023-01-11T07:36:28.213Z,288
2023-01-11T07:37:40.609Z,304
2023-01-11T07:38:28.851Z,308
2023-01-11T07:39:49.504Z,324
2023-01-11T07:40:37.262Z,332
2023-01-11T07:41:39.258Z,348
2023-01-11T07:42:39.224Z,364
2023-01-11T07:43:40.150Z,380
2023-01-11T07:44:40.183Z,396
2023-01-11T07:45:56.195Z,424
2023-01-11T07:46:42.238Z,440
2023-01-11T07:47:42.097Z,464
2023-01-11T07:48:42.315Z,496
2023-01-11T07:49:42.256Z,524
2023-01-11T07:50:44.960Z,552
2023-01-11T07:51:44.133Z,572
2023-01-11T07:52:44.043Z,596
2023-01-11T07:53:45.274Z,616
2023-01-11T07:54:45.592Z,620
2023-01-11T07:55:46.553Z,628
2023-01-11T07:56:46.480Z,648
2023-01-11T07:57:47.735Z,684
2023-01-11T07:58:48.962Z,736
2023-01-11T07:59:49.180Z,768
2023-01-11T08:00:50.152Z,780
2023-01-11T08:01:52.025Z,768
2023-01-11T08:02:51.969Z,756
2023-01-11T08:03:52.896Z,772
2023-01-11T08:04:53.145Z,808
2023-01-11T08:05:53.354Z,824
2023-01-11T08:06:54.575Z,816
2023-01-11T08:07:54.909Z,784
2023-01-11T08:08:55.966Z,748
2023-01-11T08:09:56.361Z,740
2023-01-11T08:10:57.025Z,748
2023-01-11T08:11:57.773Z,748
2023-01-11T08:12:58.014Z,760
2023-01-11T08:13:58.581Z,768
2023-01-11T08:14:59.296Z,772
2023-01-11T08:16:00.209Z,768
2023-01-11T08:16:59.364Z,784
2023-01-11T08:18:00.644Z,772
2023-01-11T08:19:01.285Z,748
2023-01-11T08:20:01.836Z,724
2023-01-11T08:21:02.604Z,712
2023-01-11T08:22:03.279Z,708
2023-01-11T08:23:03.792Z,708
2023-01-11T08:24:04.381Z,716
2023-01-11T08:25:04.326Z,728
2023-01-11T08:26:04.857Z,744
2023-01-11T08:27:04.988Z,772
2023-01-11T08:28:05.604Z,808
2023-01-11T08:29:05.817Z,848
2023-01-11T08:30:06.089Z,884
2023-01-11T08:31:06.777Z,920
2023-01-11T08:32:07.096Z,960
2023-01-11T08:33:07.774Z,980
2023-01-11T08:34:08.548Z,996
2023-01-11T08:35:08.806Z,1012
2023-01-11T08:36:09.021Z,1036
2023-01-11T08:37:09.237Z,1060
2023-01-11T08:38:09.737Z,1076
2023-01-11T08:39:09.738Z,1088
2023-01-11T08:40:10.959Z,1104
2023-01-11T08:41:11.463Z,1124
2023-01-11T08:42:12.683Z,1144
2023-01-11T08:43:13.209Z,1168
2023-01-11T08:44:14.966Z,1196
2023-01-11T08:45:13.683Z,1228
2023-01-11T08:46:14.182Z,1272
2023-01-11T08:47:14.493Z,1312
2023-01-11T08:48:15.172Z,1308
2023-01-11T08:49:16.223Z,1312
2023-01-11T08:50:15.232Z,1320
2023-01-11T08:51:15.896Z,1324
2023-01-11T08:52:16.139Z,1356
2023-01-11T08:53:18.203Z,1372
2023-01-11T08:54:17.156Z,1388
2023-01-11T08:55:18.438Z,1404
2023-01-11T08:56:18.457Z,1468
2023-01-11T08:57:19.408Z,1440
2023-01-11T08:58:21.467Z,1440
2023-01-11T08:59:20.746Z,1448
2023-01-11T09:00:21.735Z,1476
2023-01-11T09:01:22.557Z,1548
2023-01-11T09:02:22.610Z,1628
2023-01-11T09:03:23.963Z,1632
2023-01-11T09:04:35.892Z,1592
2023-01-11T09:05:24.621Z,1580
2023-01-11T09:06:24.827Z,1648
2023-01-11T09:07:25.487Z,1728
2023-01-11T09:08:27.016Z,1976
2023-01-11T09:09:27.014Z,2048
2023-01-11T09:10:27.376Z,1912
2023-01-11T09:11:27.580Z,1864
2023-01-11T09:12:27.724Z,1860
2023-01-11T09:13:28.046Z,1824
2023-01-11T09:14:28.750Z,1796
2023-01-11T09:15:29.459Z,1784
2023-01-11T09:16:29.687Z,1824
2023-01-11T09:17:30.218Z,1864
2023-01-11T09:18:30.795Z,1904
2023-01-11T09:19:31.331Z,1944
2023-01-11T09:20:31.625Z,1996
2023-01-11T09:21:32.250Z,2048
2023-01-11T09:22:32.463Z,2072
2023-01-11T09:23:32.385Z,2060
2023-01-11T09:24:33.720Z,2056
2023-01-11T09:25:34.291Z,2100
2023-01-11T09:26:34.042Z,2172
2023-01-11T09:27:34.439Z,2300
2023-01-11T09:28:35.560Z,2300
2023-01-11T09:29:37.359Z,2456
2023-01-11T09:30:36.802Z,2336
2023-01-11T09:31:37.441Z,2356
2023-01-11T09:32:38.023Z,2336
2023-01-11T09:33:38.655Z,2224
2023-01-11T09:34:38.732Z,2152
2023-01-11T09:35:39.528Z,2184
2023-01-11T09:36:40.510Z,1976
2023-01-11T09:37:41.165Z,1864
2023-01-11T09:38:41.674Z,1804
2023-01-11T09:39:41.754Z,1828
2023-01-11T09:40:41.989Z,1856
2023-01-11T09:41:42.458Z,1764
2023-01-11T09:42:43.117Z,1772
2023-01-11T09:43:42.816Z,1728
2023-01-11T09:44:43.882Z,1780
2023-01-11T09:45:44.399Z,1804
2023-01-11T09:46:45.034Z,2060
2023-01-11T09:47:45.431Z,2368
2023-01-11T09:48:45.546Z,2464
2023-01-11T09:49:45.819Z,2688
2023-01-11T09:50:46.262Z,2704
2023-01-11T09:51:47.317Z,2736
2023-01-11T09:52:47.537Z,2900
2023-01-11T09:53:47.844Z,3316
2023-01-11T09:54:48.868Z,3572
2023-01-11T09:55:49.856Z,3560
2023-01-11T09:56:50.166Z,3252
2023-01-11T09:57:50.756Z,2852
2023-01-11T09:58:50.507Z,2612
2023-01-11T09:59:51.784Z,2480
2023-01-11T10:00:52.313Z,2440
2023-01-11T10:01:52.136Z,3076
2023-01-11T10:02:52.724Z,3192
2023-01-11T10:03:53.296Z,3636
2023-01-11T10:04:53.481Z,3000
2023-01-11T10:05:53.887Z,3100
2023-01-11T10:06:53.840Z,2912
2023-01-11T10:19:41.211Z,3304
2023-01-11T10:19:58.607Z,3220
2023-01-11T10:20:58.449Z,3000
2023-01-11T10:21:58.971Z,2952
2023-01-11T10:22:59.481Z,2876
2023-01-11T10:23:59.457Z,2832
2023-01-11T10:25:00.676Z,2756
2023-01-11T10:26:01.913Z,2840
2023-01-11T10:27:02.308Z,2916
2023-01-11T10:28:02.747Z,3100
2023-01-11T10:29:03.285Z,3228
2023-01-11T10:30:03.592Z,3692
2023-01-11T10:31:03.809Z,4052
2023-01-11T10:32:04.580Z,4152
2023-01-11T10:33:05.592Z,4392
2023-01-11T10:34:06.182Z,4356
2023-01-11T10:35:06.812Z,4464
2023-01-11T10:36:07.407Z,4600
2023-01-11T10:37:07.680Z,4208
2023-01-11T10:38:07.661Z,3776
2023-01-11T10:39:07.935Z,4048
2023-01-11T10:40:08.193Z,4188
2023-01-11T10:41:08.926Z,4440
2023-01-11T10:42:09.181Z,4532
2023-01-11T10:43:10.183Z,5204
2023-01-11T10:44:11.434Z,5352
2023-01-11T10:45:12.708Z,5688
2023-01-11T10:46:13.256Z,6236
2023-01-11T10:47:13.138Z,5700
2023-01-11T10:48:14.378Z,6100
2023-01-11T10:49:14.337Z,5876
2023-01-11T10:50:17.956Z,5816
2023-01-11T10:51:16.624Z,5684
2023-01-11T10:52:16.560Z,5692
2023-01-11T10:53:17.823Z,5612
2023-01-11T10:54:18.834Z,6064
2023-01-11T10:55:19.213Z,6244
2023-01-11T10:56:20.780Z,6644
2023-01-11T10:57:21.281Z,5532
2023-01-11T10:58:21.573Z,4996
2023-01-11T10:59:22.402Z,4432
2023-01-11T11:00:21.996Z,2552
2023-01-11T11:01:23.769Z,2476
2023-01-11T11:02:26.191Z,2476
2023-01-11T11:03:23.711Z,2128
2023-01-11T11:04:24.013Z,1964
2023-01-11T11:05:24.008Z,1760
2023-01-11T11:06:24.345Z,1688
2023-01-11T11:07:41.432Z,1692
2023-01-11T11:08:26.113Z,1680
2023-01-11T11:09:26.389Z,2036
2023-01-11T11:10:27.781Z,1748
2023-01-11T11:11:27.835Z,1696
2023-01-11T11:12:28.491Z,1696
2023-01-11T11:13:28.992Z,1760
2023-01-11T11:14:29.501Z,1820
2023-01-11T11:15:29.758Z,1860
2023-01-11T11:16:30.540Z,1824
2023-01-11T11:17:30.995Z,1824
2023-01-11T11:18:32.235Z,1812
2023-01-11T11:19:33.324Z,1776
2023-01-11T11:20:33.792Z,1752
2023-01-11T11:21:34.059Z,1748
2023-01-11T11:22:35.421Z,1772
2023-01-11T11:23:35.332Z,1820
2023-01-11T11:24:35.546Z,1864
2023-01-11T11:25:36.269Z,1928
2023-01-11T11:26:37.545Z,1856
2023-01-11T11:27:37.243Z,1856
2023-01-11T11:28:38.496Z,1652
2023-01-11T11:29:38.741Z,1508
2023-01-11T11:30:38.764Z,1452
2023-01-11T11:31:42.046Z,1436
2023-01-11T11:32:42.731Z,1432
2023-01-11T11:33:41.008Z,1428
2023-01-11T11:34:41.309Z,1436
2023-01-11T11:35:41.963Z,1448
2023-01-11T11:36:42.533Z,1436
2023-01-11T11:37:42.793Z,1412
2023-01-11T11:38:43.317Z,1388
2023-01-11T11:39:43.902Z,1348
2023-01-11T11:40:43.972Z,1284
2023-01-11T11:41:44.480Z,1224
2023-01-11T11:42:44.730Z,1196
2023-01-11T11:43:45.501Z,1192
2023-01-11T11:44:46.555Z,1184
2023-01-11T11:45:47.460Z,1200
2023-01-11T11:46:47.834Z,1224
2023-01-11T11:47:48.176Z,1256
2023-01-11T11:48:49.108Z,1276
2023-01-11T11:49:49.480Z,1284
2023-01-11T11:50:56.689Z,1240
2023-01-11T11:51:50.823Z,1192
2023-01-11T11:52:51.523Z,1152
2023-01-11T11:53:52.469Z,1108
2023-01-11T11:54:52.408Z,1072
2023-01-11T11:55:52.629Z,1052
2023-01-11T11:56:52.896Z,1036
2023-01-11T11:57:52.526Z,996
2023-01-11T11:58:53.823Z,940
2023-01-11T11:59:54.269Z,892
2023-01-11T12:00:55.526Z,868
2023-01-11T12:01:56.330Z,864
2023-01-11T12:02:56.932Z,856
2023-01-11T12:03:56.918Z,856
2023-01-11T12:04:57.639Z,860
2023-01-11T12:05:58.058Z,868
2023-01-11T12:07:00.501Z,872
2023-01-11T12:08:06.040Z,880
2023-01-11T12:08:59.272Z,888
2023-01-11T12:09:59.223Z,896
2023-01-11T12:11:00.430Z,908
2023-01-11T12:12:01.759Z,920
2023-01-11T12:13:01.425Z,928
2023-01-11T12:14:02.724Z,924
2023-01-11T12:15:03.634Z,928
2023-01-11T12:16:04.152Z,940
2023-01-11T12:17:04.688Z,940
2023-01-11T12:18:04.615Z,932
2023-01-11T12:19:04.255Z,924
2023-01-11T12:20:05.591Z,916
2023-01-11T12:21:05.848Z,900
2023-01-11T12:22:06.539Z,892
2023-01-11T12:23:07.105Z,884
2023-01-11T12:24:08.048Z,868
2023-01-11T12:25:08.723Z,856
2023-01-11T12:26:09.708Z,844
2023-01-11T12:27:10.254Z,836
2023-01-11T12:28:10.070Z,816
2023-01-11T12:29:11.003Z,796
2023-01-11T12:30:12.210Z,772
2023-01-11T12:31:12.796Z,748
2023-01-11T12:32:12.803Z,736
2023-01-11T12:33:13.476Z,728
2023-01-11T12:34:14.444Z,728
2023-01-11T12:35:15.402Z,732
2023-01-11T12:36:15.625Z,736
2023-01-11T12:37:16.901Z,748
2023-01-11T12:38:17.112Z,760
2023-01-11T12:39:17.623Z,772
2023-01-11T12:40:17.857Z,776
2023-01-11T12:41:20.169Z,780
2023-01-11T12:42:18.627Z,780
2023-01-11T12:43:19.268Z,780
2023-01-11T12:44:20.200Z,772
2023-01-11T12:45:20.402Z,756
2023-01-11T12:46:21.985Z,736
2023-01-11T12:47:23.709Z,720
2023-01-11T12:48:22.924Z,716
2023-01-11T12:49:23.582Z,704
2023-01-11T12:50:24.160Z,692
2023-01-11T12:51:25.151Z,664
2023-01-11T12:52:26.574Z,636
2023-01-11T12:53:25.258Z,612
2023-01-11T12:54:26.523Z,592
2023-01-11T12:55:26.778Z,584
2023-01-11T12:56:27.309Z,576
2023-01-11T12:57:27.827Z,568
2023-01-11T12:58:27.498Z,552
2023-01-11T12:59:28.457Z,544
2023-01-11T13:00:28.800Z,532
2023-01-11T13:01:29.587Z,512
2023-01-11T13:02:29.690Z,492
2023-01-11T13:03:30.288Z,468
2023-01-11T13:04:30.564Z,448
2023-01-11T13:05:31.151Z,440
2023-01-11T13:06:31.715Z,428
2023-01-11T13:07:31.697Z,420
2023-01-11T13:08:32.093Z,420
2023-01-11T13:09:32.614Z,424
2023-01-11T13:10:32.836Z,420
2023-01-11T13:11:33.332Z,416
2023-01-11T13:12:33.643Z,412
2023-01-11T13:13:34.619Z,408
2023-01-11T13:14:35.267Z,404
2023-01-11T13:15:37.902Z,392
2023-01-11T13:16:36.251Z,384
2023-01-11T13:17:36.305Z,376
2023-01-11T13:18:37.236Z,376
2023-01-11T13:19:37.521Z,376
2023-01-11T13:21:06.885Z,388
2023-01-11T13:21:38.199Z,396
2023-01-11T13:22:38.929Z,412
2023-01-11T13:23:39.002Z,428
2023-01-11T13:24:40.259Z,436
2023-01-11T13:25:40.847Z,444
2023-01-11T13:26:41.741Z,444
2023-01-11T13:27:41.867Z,436
2023-01-11T13:28:42.394Z,416
2023-01-11T13:29:42.351Z,388
2023-01-11T13:30:44.184Z,360
2023-01-11T13:31:43.957Z,332
2023-01-11T13:32:44.541Z,320
2023-01-11T13:33:44.602Z,312
2023-01-11T13:34:46.721Z,312
2023-01-11T13:35:45.902Z,316
2023-01-11T13:36:46.590Z,324
2023-01-11T13:37:47.319Z,332
2023-01-11T13:38:47.936Z,348
2023-01-11T13:39:48.145Z,360
2023-01-11T13:40:48.635Z,372
2023-01-11T13:41:48.863Z,384
2023-01-11T13:42:49.460Z,384
2023-01-11T13:43:49.682Z,376
2023-01-11T13:44:50.179Z,372
2023-01-11T13:45:50.511Z,360
2023-01-11T13:46:51.325Z,344
2023-01-11T13:47:51.316Z,324
2023-01-11T13:48:51.876Z,312
2023-01-11T13:49:51.822Z,300
2023-01-11T13:50:53.088Z,292
2023-01-11T13:51:53.406Z,280
2023-01-11T13:52:53.469Z,268
2023-01-11T13:53:53.698Z,260
2023-01-11T13:54:54.677Z,252
2023-01-11T13:55:55.183Z,248
2023-01-11T13:56:55.410Z,252
2023-01-11T13:57:55.918Z,260
2023-01-11T13:58:55.595Z,260
2023-01-11T13:59:56.927Z,264
2023-01-11T14:00:57.510Z,260
2023-01-11T14:01:57.331Z,256
2023-01-11T14:02:57.751Z,248
2023-01-11T14:03:58.804Z,240
2023-01-11T14:04:58.791Z,232
2023-01-11T14:05:59.886Z,236
2023-01-11T14:07:00.171Z,244
2023-01-11T14:08:00.145Z,256
2023-01-11T14:09:01.390Z,260
2023-01-11T14:10:02.078Z,260
2023-01-11T14:11:03.105Z,252
2023-01-11T14:12:03.645Z,240
2023-01-11T14:13:03.979Z,228
2023-01-11T14:14:03.910Z,216
2023-01-11T14:15:05.123Z,200
2023-01-11T14:16:05.354Z,180
2023-01-11T14:17:05.829Z,164
2023-01-11T14:18:06.067Z,144
2023-01-11T14:19:06.587Z,132
2023-01-11T14:20:06.985Z,128
2023-01-11T14:21:07.282Z,120
2023-01-11T14:22:08.233Z,112
2023-01-11T14:23:10.687Z,108
2023-01-11T14:24:08.467Z,104
2023-01-11T14:25:09.704Z,100
2023-01-11T14:26:09.971Z,92
2023-01-11T14:27:10.960Z,88